Time;durP1;ratioP1;P1;durP2;ratioP2;P2;SDS_P1;SDS_P2;PMS_P1;PMS_P2;Temp;Humidity;BMP_temperature;BMP_pressure;BME280_temperature;BME280_humidity;BME280_pressure;Samples;Min_cycle;Max_cycle;Signal;HPM_P1;HPM_P2
2023/01/29 04:39:54;;;;;;;39.83;22.90;;;;;;;2.40;67.57;100942.78;5064399;23;20176;-80
2023/01/29 04:42:34;;;;;;;40.22;22.73;;;;;;;2.36;67.56;100935.88;5021040;28;20064;-79
2023/01/29 04:45:24;;;;;;;38.95;22.63;;;;;;;2.34;67.41;100934.16;5004841;28;20290;-81
2023/01/29 04:48:12;;;;;;;39.83;23.27;;;;;;;2.33;67.74;100935.00;4993328;28;20058;-80
2023/01/29 04:50:45;;;;;;;38.72;22.40;;;;;;;2.35;68.39;100929.81;4992739;28;20116;-80
2023/01/29 04:53:22;;;;;;;39.50;22.45;;;;;;;2.36;68.34;100928.97;4991625;28;20054;-79
2023/01/29 04:55:54;;;;;;;39.55;23.48;;;;;;;2.37;68.68;100920.28;4992409;28;20054;-80
2023/01/29 04:58:23;;;;;;;39.10;23.30;;;;;;;2.39;68.69;100926.31;4975081;28;20054;-80
2023/01/29 05:00:53;;;;;;;45.67;24.42;;;;;;;2.39;69.01;100922.88;4992508;28;20301;-79
2023/01/29 05:03:23;;;;;;;39.72;23.13;;;;;;;2.39;68.72;100934.13;4992668;28;20054;-80
2023/01/29 05:05:50;;;;;;;38.63;22.60;;;;;;;2.42;68.94;100928.03;4992339;28;20093;-79
2023/01/29 05:08:20;;;;;;;41.33;23.80;;;;;;;2.42;68.68;100936.72;4992263;28;20054;-80
2023/01/29 05:10:53;;;;;;;39.72;22.92;;;;;;;2.43;68.29;100938.44;4980981;28;20050;-80
2023/01/29 05:13:22;;;;;;;37.65;23.08;;;;;;;2.47;69.00;100939.31;5012064;28;20088;-80
2023/01/29 05:15:55;;;;;;;39.30;21.67;;;;;;;2.48;68.43;100934.09;5011820;28;20108;-80
2023/01/29 05:18:22;;;;;;;40.42;22.13;;;;;;;2.53;69.26;100938.41;5011619;28;20054;-80
2023/01/29 05:20:49;;;;;;;38.22;22.92;;;;;;;2.53;68.57;100930.59;5011704;28;20092;-80
2023/01/29 05:23:21;;;;;;;42.08;24.58;;;;;;;2.54;68.44;100937.56;5011779;28;20064;-80
2023/01/29 05:25:49;;;;;;;39.28;23.73;;;;;;;2.55;68.75;100936.66;5011759;28;20062;-80
2023/01/29 05:28:16;;;;;;;42.33;23.38;;;;;;;2.57;68.59;100940.13;5011599;28;20073;-80
2023/01/29 05:30:51;;;;;;;40.28;23.73;;;;;;;2.55;68.36;100936.66;5010386;28;20466;-79
2023/01/29 05:33:26;;;;;;;43.25;23.92;;;;;;;2.56;68.10;100928.88;4994071;28;20058;-80
2023/01/29 05:35:52;;;;;;;41.55;24.48;;;;;;;2.59;68.72;100933.19;5011681;28;20085;-80
2023/01/29 05:38:19;;;;;;;37.90;22.50;;;;;;;2.60;68.64;100935.78;5011430;28;20062;-79
2023/01/29 05:40:46;;;;;;;39.25;23.10;;;;;;;2.62;69.13;100940.97;5011042;28;20081;-80
2023/01/29 05:43:15;;;;;;;37.28;22.05;;;;;;;2.63;68.68;100945.31;5009958;28;20089;-79
2023/01/29 05:45:41;;;;;;;40.72;23.65;;;;;;;2.64;68.68;100941.81;5010092;28;20085;-79
2023/01/29 05:48:08;;;;;;;39.50;23.42;;;;;;;2.64;68.98;100928.81;5011201;28;20104;-80
2023/01/29 05:50:35;;;;;;;41.17;22.77;;;;;;;2.66;68.86;100918.41;5011541;28;20053;-80
2023/01/29 05:53:01;;;;;;;42.40;23.83;;;;;;;2.67;68.95;100930.53;5011381;28;20639;-79
2023/01/29 05:55:28;;;;;;;42.63;25.10;;;;;;;2.65;68.85;100927.94;5011329;28;20065;-79
2023/01/29 05:57:55;;;;;;;41.92;24.42;;;;;;;2.66;68.57;100919.31;5011663;28;20471;-80
2023/01/29 06:00:21;;;;;;;40.60;24.77;;;;;;;2.67;68.95;100912.34;5011612;28;20073;-80
2023/01/29 06:02:48;;;;;;;39.10;22.50;;;;;;;2.68;68.75;100916.66;5011196;28;20146;-80
2023/01/29 06:05:14;;;;;;;41.50;24.35;;;;;;;2.67;68.35;100925.34;5011027;28;20504;-80
2023/01/29 06:07:44;;;;;;;42.28;23.67;;;;;;;2.66;69.01;100921.91;5010881;28;20054;-80
2023/01/29 06:10:13;;;;;;;43.63;24.73;;;;;;;2.67;68.98;100930.53;4993640;28;20054;-80
2023/01/29 06:12:42;;;;;;;39.78;23.63;;;;;;;2.67;68.94;100930.53;5010955;28;20049;-79
2023/01/29 06:15:09;;;;;;;43.20;23.98;;;;;;;2.67;68.87;100928.81;5010608;28;20104;-79
2023/01/29 06:17:36;;;;;;;42.60;24.10;;;;;;;2.66;68.93;100931.41;5010857;28;20112;-80
2023/01/29 06:20:04;;;;;;;41.83;24.70;;;;;;;2.65;68.79;100940.94;5010722;28;20058;-80
2023/01/29 06:22:31;;;;;;;44.13;24.02;;;;;;;2.67;68.60;100940.94;5010862;28;20120;-81
2023/01/29 06:24:58;;;;;;;42.50;23.48;;;;;;;2.67;69.33;100939.22;4993192;28;20112;-80
2023/01/29 06:27:24;;;;;;;40.80;24.25;;;;;;;2.67;69.01;100946.13;5010559;28;20098;-80
2023/01/29 06:29:51;;;;;;;41.40;24.02;;;;;;;2.66;68.85;100934.91;5009380;28;20066;-80
2023/01/29 06:32:17;;;;;;;43.17;25.20;;;;;;;2.66;68.95;100923.63;5010610;28;20516;-80
2023/01/29 06:34:43;;;;;;;41.10;24.20;;;;;;;2.65;68.98;100935.75;5010572;28;20077;-80
2023/01/29 06:37:10;;;;;;;42.53;24.10;;;;;;;2.65;69.00;100935.75;4992924;28;20561;-80
2023/01/29 06:39:36;;;;;;;41.70;23.60;;;;;;;2.65;69.08;100943.53;5009791;28;20493;-85
2023/01/29 06:42:03;;;;;;;41.88;24.38;;;;;;;2.64;68.60;100931.44;5010030;28;20062;-80
2023/01/29 06:44:29;;;;;;;46.05;25.10;;;;;;;2.64;69.15;100928.81;4992431;28;20057;-80
2023/01/29 06:46:56;;;;;;;41.75;24.45;;;;;;;2.63;68.96;100913.22;5008665;28;20069;-80
2023/01/29 06:49:22;;;;;;;43.88;24.55;;;;;;;2.60;69.16;100916.72;5008676;28;20104;-81
2023/01/29 06:51:49;;;;;;;43.00;24.80;;;;;;;2.58;68.72;100928.88;5010417;28;20396;-80
2023/01/29 06:54:15;;;;;;;43.45;25.08;;;;;;;2.55;69.00;100931.47;5012742;28;20060;-80
2023/01/29 06:56:41;;;;;;;46.97;25.85;;;;;;;2.51;69.29;100929.75;5013516;28;20065;-81
2023/01/29 06:59:09;;;;;;;47.40;26.13;;;;;;;2.48;69.31;100931.47;5014185;28;20472;-81
2023/01/29 07:01:39;;;;;;;45.30;25.75;;;;;;;2.47;69.01;100926.31;5014263;28;20504;-81
2023/01/29 07:04:06;;;;;;;45.90;25.85;;;;;;;2.46;69.62;100916.78;4995799;28;20065;-80
2023/01/29 07:06:33;;;;;;;48.28;26.60;;;;;;;2.43;69.87;100922.00;5013474;28;20077;-80
2023/01/29 07:09:01;;;;;;;47.38;26.00;;;;;;;2.40;69.42;100924.59;5012840;28;20061;-80
2023/01/29 07:11:27;;;;;;;43.92;24.48;;;;;;;2.38;69.36;100929.81;5013214;28;20413;-80
2023/01/29 07:13:54;;;;;;;46.33;27.25;;;;;;;2.36;69.53;100928.09;5013704;28;20584;-80
2023/01/29 07:16:20;;;;;;;42.10;24.42;;;;;;;2.35;69.93;100929.81;5012141;28;20085;-80
2023/01/29 07:18:47;;;;;;;45.65;26.17;;;;;;;2.35;69.97;100924.63;4996362;28;20046;-80
2023/01/29 07:21:13;;;;;;;41.75;24.17;;;;;;;2.36;69.52;100931.56;5013733;28;20427;-80
2023/01/29 07:23:40;;;;;;;51.10;26.15;;;;;;;2.36;69.86;100928.09;5013787;28;20112;-80
2023/01/29 07:26:06;;;;;;;50.90;27.20;;;;;;;2.34;69.91;100923.75;5013416;28;20080;-80
2023/01/29 07:28:37;;;;;;;43.13;23.50;;;;;;;2.34;70.05;100917.69;5013677;28;20073;-80
2023/01/29 07:31:04;;;;;;;46.03;25.23;;;;;;;2.34;70.17;100915.09;5011378;28;20504;-80
2023/01/29 07:33:31;;;;;;;45.30;24.95;;;;;;;2.36;70.21;100905.56;5012665;28;20471;-80
2023/01/29 07:35:57;;;;;;;42.28;24.73;;;;;;;2.36;70.43;100905.56;5012593;28;20057;-80
2023/01/29 07:38:24;;;;;;;43.70;24.42;;;;;;;2.38;70.73;100914.22;5012512;28;20431;-80
2023/01/29 07:40:51;;;;;;;42.30;23.48;;;;;;;2.40;70.55;100909.88;5012446;28;20065;-80
2023/01/29 07:43:18;;;;;;;41.95;23.70;;;;;;;2.41;70.53;100909.00;5013303;28;20504;-80
2023/01/29 07:45:44;;;;;;;41.65;23.20;;;;;;;2.43;70.71;100904.66;4994306;28;20539;-81
2023/01/29 07:48:12;;;;;;;42.70;23.50;;;;;;;2.45;70.72;100915.94;4995621;28;20154;-80
2023/01/29 07:50:39;;;;;;;42.58;24.48;;;;;;;2.47;70.56;100900.34;5013001;28;20054;-81
2023/01/29 07:53:06;;;;;;;43.35;24.42;;;;;;;2.50;70.67;100905.50;5012033;28;20057;-81
2023/01/29 07:55:32;;;;;;;43.97;25.05;;;;;;;2.51;70.45;100898.56;5012396;28;20058;-81
2023/01/29 07:58:01;;;;;;;44.70;24.95;;;;;;;2.51;70.00;100893.38;5012738;28;20069;-81
2023/01/29 08:00:30;;;;;;;45.00;23.92;;;;;;;2.51;70.51;100895.97;4995203;28;20053;-81
2023/01/29 08:03:05;;;;;;;43.85;24.20;;;;;;;2.52;69.98;100889.91;5012491;28;20058;-81
2023/01/29 08:05:32;;;;;;;42.90;24.45;;;;;;;2.54;70.35;100882.97;5012467;28;20084;-81
2023/01/29 08:07:58;;;;;;;43.97;24.35;;;;;;;2.54;70.40;100885.56;5011946;28;20057;-80
2023/01/29 08:10:34;;;;;;;44.55;24.55;;;;;;;2.54;70.15;100882.97;4996814;28;20057;-81
2023/01/29 08:13:01;;;;;;;44.08;24.10;;;;;;;2.54;70.42;100872.56;5013152;28;20123;-81
2023/01/29 08:15:28;;;;;;;44.63;25.33;;;;;;;2.54;69.99;100862.16;5011666;28;20517;-81
2023/01/29 08:17:55;;;;;;;45.85;25.73;;;;;;;2.56;69.97;100860.41;5012802;28;20077;-81
2023/01/29 08:20:24;;;;;;;45.53;24.98;;;;;;;2.55;69.94;100851.75;5012719;28;20504;-81
2023/01/29 08:23:05;;;;;;;44.67;24.45;;;;;;;2.53;70.11;100847.44;5012865;28;20061;-80
2023/01/29 08:25:32;;;;;;;42.05;23.67;;;;;;;2.56;70.40;100868.22;5011580;28;20077;-80
2023/01/29 08:27:59;;;;;;;39.50;23.17;;;;;;;2.57;70.69;100856.94;5012407;28;20512;-81
2023/01/29 08:30:29;;;;;;;39.30;22.92;;;;;;;2.59;70.28;100855.22;5012514;28;20479;-81
2023/01/29 08:32:55;;;;;;;42.78;23.60;;;;;;;2.62;70.37;100852.59;5011597;28;20054;-81
2023/01/29 08:35:22;;;;;;;41.05;22.88;;;;;;;2.65;70.63;100849.09;5012448;28;20069;-81
2023/01/29 08:37:58;;;;;;;41.00;23.35;;;;;;;2.66;70.35;100846.50;5012385;28;20061;-81
2023/01/29 08:40:25;;;;;;;40.65;22.67;;;;;;;2.69;70.65;100833.47;4994761;28;20057;-81
2023/01/29 08:42:52;;;;;;;43.22;22.77;;;;;;;2.71;70.19;100834.34;5010948;28;20070;-81
2023/01/29 08:45:18;;;;;;;41.38;23.50;;;;;;;2.76;70.50;100843.84;5012318;28;20053;-81
2023/01/29 08:47:46;;;;;;;40.20;23.00;;;;;;;2.78;70.38;100847.28;5012325;28;20057;-81
2023/01/29 08:50:13;;;;;;;40.17;23.17;;;;;;;2.80;70.07;100842.94;4994798;28;20062;-81
2023/01/29 08:52:42;;;;;;;41.28;23.10;;;;;;;2.81;70.31;100855.06;5012208;28;20140;-80
2023/01/29 08:55:09;;;;;;;37.45;20.63;;;;;;;2.84;70.18;100849.84;5012081;28;20065;-82
2023/01/29 08:57:36;;;;;;;36.72;20.90;;;;;;;2.89;70.77;100857.59;5010484;28;20070;-82
2023/01/29 09:00:04;;;;;;;36.65;20.15;;;;;;;2.91;70.29;100851.50;5011625;28;20065;-82
2023/01/29 09:02:31;;;;;;;36.92;19.67;;;;;;;2.96;70.08;100839.31;5010987;28;20061;-81
2023/01/29 09:04:58;;;;;;;34.83;20.25;;;;;;;3.01;70.86;100836.72;5010336;28;20436;-81
2023/01/29 09:07:24;;;;;;;38.70;21.08;;;;;;;3.05;70.60;100845.34;5011419;28;20057;-81
2023/01/29 09:09:51;;;;;;;36.60;20.13;;;;;;;3.12;70.38;100842.69;5011482;28;20054;-81
2023/01/29 09:12:17;;;;;;;36.03;20.98;;;;;;;3.18;70.69;100857.38;5011424;28;20522;-81
2023/01/29 09:14:43;;;;;;;35.75;19.88;;;;;;;3.24;70.51;100853.84;4993382;28;20538;-81
2023/01/29 09:17:10;;;;;;;35.20;19.80;;;;;;;3.25;70.35;100859.03;4993968;28;20057;-81
2023/01/29 09:19:36;;;;;;;38.08;21.08;;;;;;;3.31;69.92;100865.94;4994127;28;20419;-80
2023/01/29 09:22:03;;;;;;;34.40;20.00;;;;;;;3.34;70.12;100867.66;5011625;28;20100;-81
2023/01/29 09:24:29;;;;;;;33.65;20.48;;;;;;;3.37;69.82;100858.06;5011503;28;20057;-81
2023/01/29 09:26:56;;;;;;;34.45;19.95;;;;;;;3.41;70.31;100871.06;5011473;28;20065;-81
2023/01/29 09:29:22;;;;;;;33.83;19.98;;;;;;;3.45;69.71;100875.38;5011277;28;20523;-81
2023/01/29 09:31:48;;;;;;;36.47;21.08;;;;;;;3.46;69.76;100879.69;5011635;28;20057;-81
2023/01/29 09:34:15;;;;;;;34.05;20.48;;;;;;;3.49;69.95;100862.31;5011484;28;20053;-80
2023/01/29 09:36:42;;;;;;;34.63;19.27;;;;;;;3.52;70.04;100866.63;4993488;28;20512;-81
2023/01/29 09:39:08;;;;;;;35.22;20.40;;;;;;;3.54;69.87;100862.25;5011140;28;20050;-81
2023/01/29 09:41:51;;;;;;;38.00;20.90;;;;;;;3.52;68.50;100859.66;5011380;28;20054;-81
2023/01/29 09:44:48;;;;;;;32.60;19.52;;;;;;;3.56;68.53;100860.50;4993981;28;20064;-80
2023/01/29 09:47:17;;;;;;;31.73;19.27;;;;;;;3.59;69.66;100854.41;5011105;28;20416;-80
2023/01/29 09:50:06;;;;;;;31.10;18.77;;;;;;;3.57;68.51;100849.22;5010950;28;20153;-81
2023/01/29 09:52:37;;;;;;;32.75;19.63;;;;;;;3.61;69.37;100850.91;5011491;28;20061;-81
2023/01/29 09:55:38;;;;;;;31.58;19.30;;;;;;;3.63;68.33;100845.69;5011028;28;20061;-81
2023/01/29 09:58:30;;;;;;;30.50;18.58;;;;;;;3.66;67.93;100845.63;5010983;28;20062;-81
2023/01/29 10:01:09;;;;;;;32.40;18.95;;;;;;;3.71;68.94;100836.06;5000586;28;20054;-80
2023/01/29 10:03:54;;;;;;;30.60;19.20;;;;;;;3.76;69.34;100825.56;5010736;28;20056;-81
2023/01/29 10:06:32;;;;;;;30.67;19.48;;;;;;;3.77;69.09;100828.16;4993143;28;20065;-81
2023/01/29 10:09:17;;;;;;;30.77;18.17;;;;;;;3.83;69.62;100826.34;4993514;28;20057;-80
2023/01/29 10:12:10;;;;;;;33.33;19.00;;;;;;;3.84;68.49;100815.94;4993471;28;20421;-81
2023/01/29 10:14:54;;;;;;;32.45;18.45;;;;;;;3.84;67.99;100809.84;5010686;28;20060;-81
2023/01/29 10:17:45;;;;;;;30.55;18.58;;;;;;;3.86;67.20;100815.91;4993350;28;20060;-81
2023/01/29 10:20:41;;;;;;;29.42;17.98;;;;;;;3.86;67.71;100813.31;4993332;28;20068;-81
2023/01/29 10:23:29;;;;;;;30.15;17.67;;;;;;;3.89;67.85;100808.06;5010574;28;20058;-81
2023/01/29 10:25:55;;;;;;;27.15;17.83;;;;;;;3.93;69.43;100801.94;5009763;28;20058;-81
2023/01/29 10:28:33;;;;;;;28.40;16.98;;;;;;;3.90;68.76;100804.59;5010635;28;20061;-81
2023/01/29 10:31:06;;;;;;;33.10;18.50;;;;;;;3.93;68.44;100804.56;5010548;28;20053;-81
2023/01/29 10:33:38;;;;;;;30.58;18.52;;;;;;;3.95;68.44;100796.69;4993441;28;20088;-80
2023/01/29 10:36:27;;;;;;;30.00;18.35;;;;;;;3.96;68.79;100794.06;5010801;28;20081;-80
2023/01/29 10:38:54;;;;;;;31.17;17.92;;;;;;;3.98;68.97;100792.31;5010473;28;20156;-81
2023/01/29 10:41:24;;;;;;;29.23;18.48;;;;;;;3.98;68.43;100789.72;5051487;23;20506;-82
2023/01/29 10:44:00;;;;;;;30.77;18.65;;;;;;;3.98;67.23;100778.44;5010659;28;20062;-81
2023/01/29 10:46:32;;;;;;;31.23;18.77;;;;;;;4.02;68.35;100782.72;5010653;28;20100;-81
2023/01/29 10:49:14;;;;;;;32.85;19.35;;;;;;;4.00;67.41;100772.31;5010876;28;20478;-82
2023/01/29 10:51:55;;;;;;;33.75;19.02;;;;;;;4.03;68.25;100767.06;5010786;28;20141;-83
2023/01/29 10:54:48;;;;;;;32.45;19.27;;;;;;;4.04;68.02;100760.97;5010556;28;20054;-82
2023/01/29 10:57:24;;;;;;;29.98;19.02;;;;;;;4.07;68.94;100762.66;5010680;28;20060;-82
2023/01/29 11:00:06;;;;;;;39.80;19.25;;;;;;;4.07;67.39;100764.44;5010546;28;20064;-82
2023/01/29 11:02:33;;;;;;;32.03;19.80;;;;;;;4.08;68.38;100759.19;4993149;28;20065;-81
2023/01/29 11:05:00;;;;;;;33.75;20.17;;;;;;;4.08;68.02;100759.19;5010532;28;20060;-82
2023/01/29 11:07:26;;;;;;;33.90;18.73;;;;;;;4.06;67.94;100747.91;5010550;28;20058;-81
2023/01/29 11:10:13;;;;;;;33.78;19.80;;;;;;;4.06;67.24;100741.84;5010502;28;20096;-82
2023/01/29 11:12:42;;;;;;;32.63;20.33;;;;;;;4.08;67.86;100734.88;5010678;28;20140;-83
2023/01/29 11:15:31;;;;;;;32.65;19.77;;;;;;;4.04;65.94;100740.13;5010098;28;20050;-83
2023/01/29 11:18:09;;;;;;;31.33;19.85;;;;;;;4.05;65.60;100735.78;5010624;28;20053;-83
2023/01/29 11:20:36;;;;;;;32.30;18.60;;;;;;;4.08;67.77;100722.72;5010241;28;20057;-83
2023/01/29 11:23:02;;;;;;;34.42;20.65;;;;;;;4.09;67.93;100720.97;5010364;28;20133;-82
2023/01/29 11:25:31;;;;;;;32.10;19.88;;;;;;;4.11;68.08;100727.03;5010048;28;20065;-82
2023/01/29 11:28:00;;;;;;;34.67;20.92;;;;;;;4.10;67.58;100720.94;5010429;28;20112;-82
2023/01/29 11:30:31;;;;;;;33.88;19.70;;;;;;;4.08;66.50;100720.13;5009238;28;20061;-82
2023/01/29 11:33:22;;;;;;;35.88;21.48;;;;;;;4.05;63.96;100714.94;5010252;28;20058;-82
2023/01/29 11:35:51;;;;;;;39.20;22.27;;;;;;;4.08;67.43;100701.00;5010012;28;20064;-81
2023/01/29 11:38:25;;;;;;;39.92;21.98;;;;;;;4.05;66.06;100696.69;5012597;28;20486;-81
2023/01/29 11:41:03;;;;;;;34.42;20.77;;;;;;;4.06;66.93;100697.53;5013480;28;20057;-82
2023/01/29 11:43:30;;;;;;;40.72;22.20;;;;;;;4.06;66.98;100692.34;5013757;28;20100;-81
2023/01/29 11:46:03;;;;;;;40.75;22.27;;;;;;;4.02;64.91;100686.31;5013808;28;20636;-84
2023/01/29 11:48:42;;;;;;;35.83;21.00;;;;;;;4.00;65.10;100688.94;5013875;28;20057;-80
2023/01/29 11:51:39;;;;;;;37.53;21.88;;;;;;;4.01;65.76;100684.59;5013935;28;20602;-81
2023/01/29 11:54:24;;;;;;;35.60;20.75;;;;;;;4.03;66.67;100670.66;4953500;28;20059;-83
2023/01/29 11:56:54;;;;;;;38.22;21.27;;;;;;;4.04;67.22;100667.16;4953016;28;20059;-80
2023/01/29 12:00:01;;;;;;;36.17;20.80;;;;;;;4.02;65.38;100660.25;4952930;28;20054;-80
2023/01/29 12:06:40;;;;;;;36.97;21.42;;;;;;;4.02;64.64;100650.72;4942521;28;20141;-80
2023/01/29 12:10:03;;;;;;;;;;;;;;;;;;;;;
2023/01/29 12:13:23;;;;;;;38.13;21.38;;;;;;;4.04;64.50;100643.72;4969511;28;20524;-80
2023/01/29 12:16:13;;;;;;;37.58;21.73;;;;;;;4.07;65.04;100657.59;4964829;28;20568;-82
2023/01/29 12:19:05;;;;;;;35.65;20.13;;;;;;;4.05;64.89;100639.38;5013458;28;20524;-80
2023/01/29 12:22:40;;;;;;;34.60;20.65;;;;;;;4.03;64.13;100651.56;5009068;28;20184;-80
2023/01/29 12:25:27;;;;;;;35.00;19.88;;;;;;;4.05;66.58;100628.97;4990227;28;20061;-81
2023/01/29 12:28:34;;;;;;;39.45;21.73;;;;;;;4.01;64.04;100630.72;5012095;28;20062;-80
2023/01/29 12:31:33;;;;;;;37.95;22.00;;;;;;;4.01;64.29;100628.13;4956812;28;20416;-81
2023/01/29 12:34:24;;;;;;;36.70;21.30;;;;;;;4.02;64.59;100622.06;4955482;28;20086;-80
2023/01/29 12:41:42;;;;;;;36.58;20.42;;;;;;;4.01;64.82;100609.88;4909011;28;20091;-80
2023/01/29 12:44:42;;;;;;;;;;;;;;;;;;;;;
2023/01/29 12:48:13;;;;;;;36.15;19.20;;;;;;;4.04;64.33;100606.41;4893056;29;19975;-82
2023/01/29 12:51:58;;;;;;;;;;;;;;;;;;;;;
2023/01/29 12:55:47;;;;;;;35.00;20.23;;;;;;;4.03;65.00;100595.13;4860782;29;20221;-82
2023/01/29 12:58:21;;;;;;;;;;;;;;;4.04;63.93;100583.81;4888003;29;20562;-80
2023/01/29 13:01:01;;;;;;;34.72;19.63;;;;;;;4.07;66.78;100589.88;4933077;29;19923;-83
2023/01/29 13:03:57;;;;;;;37.92;20.60;;;;;;;4.02;65.64;100574.28;4981333;28;20050;-80
2023/01/29 13:06:46;;;;;;;33.28;20.50;;;;;;;4.02;66.91;100567.34;5013067;28;20062;-82
2023/01/29 13:09:44;;;;;;;39.17;21.23;;;;;;;4.01;66.58;100575.19;4995499;28;20061;-80
2023/01/29 13:12:38;;;;;;;41.30;22.00;;;;;;;4.02;67.12;100556.06;5010239;28;20089;-81
2023/01/29 13:15:43;;;;;;;38.72;21.65;;;;;;;4.00;66.63;100543.06;4998287;28;20406;-80
2023/01/29 13:19:00;;;;;;;35.50;21.48;;;;;;;4.02;66.71;100543.03;5013000;28;20089;-81
2023/01/29 13:21:42;;;;;;;37.90;21.80;;;;;;;4.06;67.42;100549.03;5011521;28;20052;-86
2023/01/29 13:24:30;;;;;;;39.47;23.30;;;;;;;4.02;66.98;100545.63;5013026;28;20046;-81
2023/01/29 13:27:24;;;;;;;38.70;22.30;;;;;;;4.05;67.82;100548.19;4996701;28;20057;-80
2023/01/29 13:30:23;;;;;;;35.03;21.52;;;;;;;4.01;66.83;100534.34;4996774;28;20088;-80
2023/01/29 13:33:10;;;;;;;40.65;22.23;;;;;;;4.04;67.63;100536.91;5011971;28;20061;-81
2023/01/29 13:36:13;;;;;;;38.88;23.08;;;;;;;4.05;67.15;100542.97;4956392;28;20062;-80
2023/01/29 13:39:21;;;;;;;31.90;18.70;;;;;;;4.04;66.67;100523.03;4970050;28;20106;-81
2023/01/29 13:41:54;;;;;;;39.15;22.92;;;;;;;4.07;68.32;100537.75;5006368;28;20058;-81
2023/01/29 13:44:37;;;;;;;40.05;24.15;;;;;;;4.02;67.04;100523.06;5012270;28;20108;-82
2023/01/29 13:47:38;;;;;;;43.92;25.17;;;;;;;4.03;67.17;100513.47;5011647;28;20064;-80
2023/01/29 13:50:17;;;;;;;40.90;24.25;;;;;;;4.04;67.91;100517.81;4984105;28;20083;-83
2023/01/29 13:52:53;;;;;;;40.70;24.55;;;;;;;4.04;67.78;100516.06;5011410;28;20498;-82
2023/01/29 13:55:30;;;;;;;42.53;25.20;;;;;;;4.04;68.06;100507.41;5011792;28;20160;-82
2023/01/29 13:58:01;;;;;;;43.95;26.17;;;;;;;4.04;68.62;100510.00;4994021;28;20058;-81
2023/01/29 14:00:34;;;;;;;43.47;25.42;;;;;;;4.01;67.89;100510.06;5011300;28;20096;-82
2023/01/29 14:03:03;;;;;;;45.95;27.05;;;;;;;4.02;68.53;100510.03;5011264;28;20058;-82
2023/01/29 14:05:29;;;;;;;45.58;27.20;;;;;;;4.02;68.66;100510.03;5011230;28;20053;-82
2023/01/29 14:08:00;;;;;;;48.47;27.48;;;;;;;3.99;68.58;100490.97;5011383;28;20112;-82
2023/01/29 14:10:30;;;;;;;47.67;27.88;;;;;;;3.99;68.65;100494.44;5011263;28;20081;-82
2023/01/29 14:13:02;;;;;;;46.38;28.20;;;;;;;3.97;68.51;100490.16;5011108;28;20057;-82
2023/01/29 14:15:37;;;;;;;44.60;26.33;;;;;;;3.94;68.36;100498.88;5011189;28;20115;-82
2023/01/29 14:18:09;;;;;;;45.38;26.90;;;;;;;3.93;68.43;100496.31;4993402;28;20064;-82
2023/01/29 14:21:03;;;;;;;45.83;26.98;;;;;;;3.92;68.39;100492.81;5009556;28;20061;-80
2023/01/29 14:23:40;;;;;;;45.35;27.08;;;;;;;3.96;69.18;100504.06;5002743;28;20050;-82
2023/01/29 14:26:36;;;;;;;49.88;27.15;;;;;;;3.93;68.91;100499.78;5010863;28;20096;-82
2023/01/29 14:29:12;;;;;;;49.67;26.83;;;;;;;3.95;69.35;100486.69;5010529;28;20058;-82
2023/01/29 14:32:11;;;;;;;48.88;28.50;;;;;;;3.92;68.38;100492.81;5010872;28;20568;-82
2023/01/29 14:34:46;;;;;;;43.67;25.48;;;;;;;3.94;69.00;100491.06;5011176;28;20141;-83
2023/01/29 14:37:16;;;;;;;47.28;28.08;;;;;;;3.94;69.22;100480.66;5010606;28;20062;-83
2023/01/29 14:40:11;;;;;;;45.55;28.65;;;;;;;3.92;68.61;100482.41;4993092;28;20140;-83
2023/01/29 14:42:51;;;;;;;55.05;29.02;;;;;;;3.91;69.22;100486.78;5002046;28;20053;-82
2023/01/29 14:45:34;;;;;;;46.33;28.25;;;;;;;3.88;68.85;100479.00;4992964;28;20144;-83
2023/01/29 14:48:37;;;;;;;51.00;29.17;;;;;;;3.86;68.42;100482.53;4992915;28;20255;-83
2023/01/29 14:51:15;;;;;;;49.70;29.23;;;;;;;3.82;68.93;100479.13;5010380;28;20172;-81
2023/01/29 14:54:12;;;;;;;50.03;27.85;;;;;;;3.81;69.16;100479.16;5010747;28;20054;-83
2023/01/29 14:56:45;;;;;;;47.90;29.17;;;;;;;3.81;69.45;100479.16;5009203;28;20506;-81
2023/01/29 14:59:19;;;;;;;55.38;30.90;;;;;;;3.75;69.30;100483.59;5010847;28;20392;-81
2023/01/29 15:01:52;;;;;;;50.55;29.92;;;;;;;3.73;69.55;100471.44;5010446;28;20054;-82
2023/01/29 15:04:26;;;;;;;51.97;30.38;;;;;;;3.70;69.25;100467.16;5010575;28;20566;-82
2023/01/29 15:07:08;;;;;;;55.70;31.27;;;;;;;3.63;69.78;100475.97;4993005;28;20085;-82
2023/01/29 15:09:50;;;;;;;52.30;31.60;;;;;;;3.64;69.72;100480.28;5010637;28;20054;-82
2023/01/29 15:12:23;;;;;;;50.65;30.52;;;;;;;3.59;70.06;100482.13;4993759;28;20053;-82
2023/01/29 15:15:01;;;;;;;51.78;30.77;;;;;;;3.55;69.97;100477.84;5014476;28;20054;-83
2023/01/29 15:17:45;;;;;;;55.35;32.08;;;;;;;3.50;70.24;100470.97;5014176;28;20054;-83
2023/01/29 15:20:25;;;;;;;;;;;;;;;3.52;69.93;100458.75;5014755;28;20057;-82
2023/01/29 15:22:52;;;;;;;49.80;28.20;;;;;;;3.55;70.14;100462.22;5013996;28;20453;-83
2023/01/29 15:25:20;;;;;;;49.13;28.30;;;;;;;3.53;70.22;100454.44;5014207;28;20089;-82
2023/01/29 15:27:48;;;;;;;52.10;31.23;;;;;;;3.51;70.74;100457.06;5013976;28;20061;-82
2023/01/29 15:30:20;;;;;;;53.92;30.58;;;;;;;3.49;70.22;100448.44;5014294;28;20060;-82
2023/01/29 15:32:48;;;;;;;58.33;31.13;;;;;;;3.51;70.64;100435.34;5014570;28;20136;-82
2023/01/29 15:35:21;;;;;;;56.72;33.38;;;;;;;3.49;70.37;100442.34;5013875;28;20086;-81
2023/01/29 15:37:59;;;;;;;56.13;32.47;;;;;;;3.49;70.67;100429.34;5013997;28;20073;-82
2023/01/29 15:40:26;;;;;;;55.47;30.95;;;;;;;3.50;70.49;100418.91;5010311;28;20104;-80
2023/01/29 15:42:52;;;;;;;54.08;31.02;;;;;;;3.50;70.57;100423.25;5013641;28;20144;-82
2023/01/29 15:45:30;;;;;;;60.65;32.88;;;;;;;3.46;70.30;100418.97;5013476;28;20129;-82
2023/01/29 15:48:04;;;;;;;60.70;33.58;;;;;;;3.44;69.90;100412.94;5013813;28;20049;-81
2023/01/29 15:50:38;;;;;;;58.72;33.05;;;;;;;3.46;70.53;100403.34;4996409;28;20060;-82
2023/01/29 15:53:08;;;;;;;57.42;33.60;;;;;;;3.46;70.74;100399.00;4996499;28;20412;-82
2023/01/29 15:55:35;;;;;;;54.13;33.28;;;;;;;3.46;70.71;100391.22;5012230;28;20127;-82
2023/01/29 15:58:03;;;;;;;60.17;31.95;;;;;;;3.46;70.81;100396.41;4995774;28;20065;-82
2023/01/29 16:00:30;;;;;;;60.17;33.92;;;;;;;3.47;70.85;100395.53;5013115;28;20062;-80
2023/01/29 16:02:59;;;;;;;53.47;31.45;;;;;;;3.49;70.97;100398.97;5013663;28;20108;-82
2023/01/29 16:05:31;;;;;;;57.63;32.17;;;;;;;3.48;70.47;100397.22;5013094;28;20092;-81
2023/01/29 16:07:59;;;;;;;60.47;33.58;;;;;;;3.50;70.83;100387.66;5013372;28;20046;-82
2023/01/29 16:10:30;;;;;;;57.08;32.85;;;;;;;3.51;70.36;100376.34;5013253;28;20058;-81
2023/01/29 16:12:57;;;;;;;59.92;34.88;;;;;;;3.51;70.43;100394.59;5013385;28;20133;-81
2023/01/29 16:15:33;;;;;;;58.55;34.65;;;;;;;3.48;70.37;100392.03;4995741;28;20081;-81
2023/01/29 16:18:03;;;;;;;60.83;34.40;;;;;;;3.52;70.53;100387.66;5013430;28;20056;-81
2023/01/29 16:20:36;;;;;;;56.67;33.72;;;;;;;3.49;69.90;100401.56;5013048;28;20565;-81
2023/01/29 16:23:04;;;;;;;;;;;;;;;3.49;69.50;100382.47;5013432;28;20050;-81
2023/01/29 16:25:32;;;;;;;59.45;32.92;;;;;;;3.52;70.25;100379.84;5012877;28;19979;-81
2023/01/29 16:28:03;;;;;;;66.95;35.72;;;;;;;3.48;70.06;100383.38;5012969;28;20129;-81
2023/01/29 16:30:29;;;;;;;63.22;36.10;;;;;;;3.47;70.76;100392.03;5013106;28;20137;-82
2023/01/29 16:33:02;;;;;;;62.75;34.75;;;;;;;3.44;70.43;100382.56;5012871;28;20053;-82
2023/01/29 16:35:29;;;;;;;64.78;37.38;;;;;;;3.42;70.47;100379.13;5012984;28;20058;-82
2023/01/29 16:38:02;;;;;;;58.58;34.30;;;;;;;3.39;70.97;100380.03;5012445;28;20058;-81
2023/01/29 16:40:31;;;;;;;58.90;33.10;;;;;;;3.39;70.61;100379.19;5012940;28;20091;-81
2023/01/29 16:43:15;;;;;;;59.58;34.28;;;;;;;3.39;71.09;100364.44;5075979;22;20057;-80
2023/01/29 16:46:00;;;;;;;57.47;33.05;;;;;;;3.39;71.22;100373.97;4992979;28;20530;-79
2023/01/29 16:48:31;;;;;;;63.08;33.63;;;;;;;3.35;70.85;100356.69;5010927;28;20534;-81